ADDS METAR Data INFO
IDs: Format: Raw Decoded Include TAF

Data at: 0730 UTC 18 Oct 2017

KCOE 180656Z AUTO 23006KT 10SM CLR 07/M05 A3006 RMK AO2 SLP196 T00721050
KCOE 180556Z AUTO 25004KT 10SM CLR 08/M05 A3006 RMK AO2 SLP194 T00831050 10156 20072 51013
KCOE 180456Z AUTO 26006KT 10SM CLR 09/M05 A3004 RMK AO2 SLP192 T00891050
KCOE 180356Z AUTO 25007KT 10SM CLR 10/M04 A3003 RMK AO2 SLP190 T01001044
KCOE 180256Z AUTO 25007KT 10SM CLR 11/M02 A3001 RMK AO2 SLP186 T01111022 51049
KCOE 180156Z AUTO 24009KT 10SM CLR 12/M02 A2997 RMK AO2 PK WND 24027/0059 SLP169 T01221022
KCOE 180056Z AUTO 25018G26KT 10SM CLR 13/M02 A2991 RMK AO2 PK WND 24033/0001 SLP149 T01331017
KCOE 172356Z AUTO 25021G35KT 8SM FEW075 16/02 A2986 RMK AO2 PK WND 27035/2353 SLP129 T01610017 10183 20156 53017
KCOE 172256Z AUTO 23022G31KT 10SM SCT070 BKN090 17/03 A2983 RMK AO2 PK WND 24038/2241 SLP117 T01670033
KCOE 172156Z AUTO 23025G37KT 8SM OVC075 17/01 A2980 RMK AO2 PK WND 22037/2147 SLP107 T01720006
KCOE 172056Z AUTO 22018G31KT 10SM BKN085 18/M03 A2981 RMK AO2 PK WND 22033/2035 SLP108 T01781028 56028
KCOE 171956Z AUTO 22018G26KT 10SM FEW100 18/00 A2982 RMK AO2 PK WND 22026/1954 SLP113 T01780000
KCOE 171856Z AUTO 19017G25KT 10SM CLR 17/01 A2985 RMK AO2 SLP123 T01670006
KCOE 171756Z AUTO 17015KT 10SM CLR 16/02 A2990 RMK AO2 SLP142 T01560017 10156 20061 56014
KCOE 171656Z AUTO 18012G19KT 10SM CLR 13/01 A2991 RMK AO2 SLP148 T01330011
KCOE 171556Z AUTO 17008KT 10SM CLR 11/02 A2992 RMK AO2 SLP151 T01060017
KCOE 171456Z AUTO 17006KT 10SM CLR 07/02 A2994 RMK AO2 SLP160 T00670022 58019
KCOE 171356Z AUTO 16009KT 10SM CLR 07/02 A2996 RMK AO2 SLP166 T00670022
KCOE 171256Z AUTO 17008KT 10SM CLR 07/02 A2998 RMK AO2 SLP173 T00670017
KCOE 171156Z AUTO 17007KT 10SM CLR 06/03 A3000 RMK AO2 SLP176 7//// T00610028 10083 20039 58020
KCOE 171056Z AUTO 16006KT 10SM CLR 07/03 A3002 RMK AO2 SLP182 T00670033
KCOE 170956Z AUTO 16007KT 10SM CLR 07/03 A3004 RMK AO2 SLP190 T00670028
KCOE 170856Z AUTO 15008KT 10SM CLR 08/03 A3006 RMK AO2 SLP198 T00780028 58014
KCOE 170756Z AUTO 00000KT 10SM CLR 06/02 A3008 RMK AO2 SLP207 T00560017 401781022
KCOE 170656Z AUTO 15005KT 10SM CLR 08/02 A3009 RMK AO2 SLP210 T00780022
KCOE 170556Z AUTO 14004KT 10SM CLR 06/02 A3011 RMK AO2 SLP218 T00560022 10167 20044 56003
KCOE 170456Z AUTO 00000KT 10SM CLR 07/02 A3011 RMK AO2 SLP220 T00720022
KCOE 170356Z AUTO 15006KT 10SM CLR 11/02 A3010 RMK AO2 SLP219 T01060022
KCOE 170256Z AUTO 17005KT 10SM CLR 11/02 A3012 RMK AO2 SLP228 T01060017 56009
KCOE 170156Z AUTO 00000KT 10SM CLR 12/02 A3013 RMK AO2 SLP232 T01170017
KCOE 170056Z AUTO 18005KT 10SM CLR 13/01 A3013 RMK AO2 SLP231 T01330011
KCOE 162356Z AUTO 19007KT 10SM CLR 17/01 A3015 RMK AO2 SLP232 T01670011 10178 20117 56015
KCOE 162256Z AUTO 21006KT 10SM CLR 18/01 A3016 RMK AO2 SLP235 T01780006
KCOE 162156Z AUTO 24004KT 10SM CLR 17/02 A3017 RMK AO2 SLP240 T01720017
KCOE 162056Z AUTO VRB03KT 10SM CLR 16/01 A3019 RMK AO2 SLP249 T01560006 58014
KCOE 161956Z AUTO 17009KT 10SM CLR 15/01 A3021 RMK AO2 SLP255 T01500006